sensor_id;sensor_type;location;lat;lon;timestamp;temperature;humidity
14527;DHT22;7350;51.208;4.238;2023-02-12T00:01:09;18.70;99.90
14527;DHT22;7350;51.208;4.238;2023-02-12T00:03:37;18.70;99.90
14527;DHT22;7350;51.208;4.238;2023-02-12T00:06:05;18.70;99.90
14527;DHT22;7350;51.208;4.238;2023-02-12T00:08:32;18.60;99.90
14527;DHT22;7350;51.208;4.238;2023-02-12T00:11:06;18.60;99.90
14527;DHT22;7350;51.208;4.238;2023-02-12T00:13:33;18.60;99.90
14527;DHT22;7350;51.208;4.238;2023-02-12T00:16:03;18.60;99.90
14527;DHT22;7350;51.208;4.238;2023-02-12T00:18:30;18.60;99.90
14527;DHT22;7350;51.208;4.238;2023-02-12T00:20:58;18.60;99.90
14527;DHT22;7350;51.208;4.238;2023-02-12T00:23:26;18.60;99.90
14527;DHT22;7350;51.208;4.238;2023-02-12T00:25:53;18.60;99.90
14527;DHT22;7350;51.208;4.238;2023-02-12T00:28:22;18.60;99.90
14527;DHT22;7350;51.208;4.238;2023-02-12T00:30:49;18.50;99.90
14527;DHT22;7350;51.208;4.238;2023-02-12T00:33:16;18.60;99.90
14527;DHT22;7350;51.208;4.238;2023-02-12T00:35:43;18.60;99.90
14527;DHT22;7350;51.208;4.238;2023-02-12T00:38:10;18.60;99.90
14527;DHT22;7350;51.208;4.238;2023-02-12T00:40:37;18.60;99.90
14527;DHT22;7350;51.208;4.238;2023-02-12T00:43:04;18.50;99.90
14527;DHT22;7350;51.208;4.238;2023-02-12T00:45:33;18.50;99.90
14527;DHT22;7350;51.208;4.238;2023-02-12T00:48:03;18.50;99.90
14527;DHT22;7350;51.208;4.238;2023-02-12T00:50:30;18.50;99.90
14527;DHT22;7350;51.208;4.238;2023-02-12T00:52:57;18.50;99.90
14527;DHT22;7350;51.208;4.238;2023-02-12T00:55:23;18.50;99.90
14527;DHT22;7350;51.208;4.238;2023-02-12T00:57:50;18.50;99.90
14527;DHT22;7350;51.208;4.238;2023-02-12T01:00:18;18.50;99.90
14527;DHT22;7350;51.208;4.238;2023-02-12T01:02:46;18.50;99.90
14527;DHT22;7350;51.208;4.238;2023-02-12T01:05:13;18.50;99.90
14527;DHT22;7350;51.208;4.238;2023-02-12T01:07:40;18.50;99.90
14527;DHT22;7350;51.208;4.238;2023-02-12T01:10:07;18.40;99.90
14527;DHT22;7350;51.208;4.238;2023-02-12T01:12:34;18.50;99.90
14527;DHT22;7350;51.208;4.238;2023-02-12T01:15:01;18.50;99.90
14527;DHT22;7350;51.208;4.238;2023-02-12T01:17:28;18.40;99.90
14527;DHT22;7350;51.208;4.238;2023-02-12T01:19:58;18.40;99.90
14527;DHT22;7350;51.208;4.238;2023-02-12T01:22:25;18.40;99.90
14527;DHT22;7350;51.208;4.238;2023-02-12T01:24:51;18.40;99.90
14527;DHT22;7350;51.208;4.238;2023-02-12T01:27:19;18.40;99.90
14527;DHT22;7350;51.208;4.238;2023-02-12T01:29:45;18.40;99.90
14527;DHT22;7350;51.208;4.238;2023-02-12T01:32:12;18.30;99.90
14527;DHT22;7350;51.208;4.238;2023-02-12T01:34:39;18.40;99.90
14527;DHT22;7350;51.208;4.238;2023-02-12T01:37:08;18.40;99.90
14527;DHT22;7350;51.208;4.238;2023-02-12T01:39:35;18.40;99.90
14527;DHT22;7350;51.208;4.238;2023-02-12T01:42:03;18.30;99.90
14527;DHT22;7350;51.208;4.238;2023-02-12T01:44:31;18.40;99.90
14527;DHT22;7350;51.208;4.238;2023-02-12T01:47:01;18.40;99.90
14527;DHT22;7350;51.208;4.238;2023-02-12T01:49:32;18.40;99.90
14527;DHT22;7350;51.208;4.238;2023-02-12T01:52:04;18.30;99.90
14527;DHT22;7350;51.208;4.238;2023-02-12T01:54:33;18.40;99.90
14527;DHT22;7350;51.208;4.238;2023-02-12T01:57:02;18.40;99.90
14527;DHT22;7350;51.208;4.238;2023-02-12T01:59:30;18.30;99.90
14527;DHT22;7350;51.208;4.238;2023-02-12T02:01:58;18.30;99.90
14527;DHT22;7350;51.208;4.238;2023-02-12T02:04:28;18.30;99.90
14527;DHT22;7350;51.208;4.238;2023-02-12T02:06:57;18.30;99.90
14527;DHT22;7350;51.208;4.238;2023-02-12T02:09:25;18.30;99.90
14527;DHT22;7350;51.208;4.238;2023-02-12T02:11:54;18.30;99.90
14527;DHT22;7350;51.208;4.238;2023-02-12T02:14:39;18.30;99.90
14527;DHT22;7350;51.208;4.238;2023-02-12T02:20:39;18.30;99.90
14527;DHT22;7350;51.208;4.238;2023-02-12T02:23:33;18.30;99.90
14527;DHT22;7350;51.208;4.238;2023-02-12T02:26:21;18.20;99.90
14527;DHT22;7350;51.208;4.238;2023-02-12T02:32:13;18.20;99.90
14527;DHT22;7350;51.208;4.238;2023-02-12T02:34:49;18.20;99.90
14527;DHT22;7350;51.208;4.238;2023-02-12T02:37:18;18.10;99.90
14527;DHT22;7350;51.208;4.238;2023-02-12T02:39:51;18.10;99.90
14527;DHT22;7350;51.208;4.238;2023-02-12T02:42:23;18.10;99.90
14527;DHT22;7350;51.208;4.238;2023-02-12T02:44:54;18.00;99.90
14527;DHT22;7350;51.208;4.238;2023-02-12T02:47:30;18.10;99.90
14527;DHT22;7350;51.208;4.238;2023-02-12T02:50:01;18.10;99.90
14527;DHT22;7350;51.208;4.238;2023-02-12T02:52:33;18.10;99.90
14527;DHT22;7350;51.208;4.238;2023-02-12T02:55:04;18.10;99.90
14527;DHT22;7350;51.208;4.238;2023-02-12T02:57:35;18.10;99.90
14527;DHT22;7350;51.208;4.238;2023-02-12T03:00:07;18.10;99.90
14527;DHT22;7350;51.208;4.238;2023-02-12T03:02:39;18.00;99.90
14527;DHT22;7350;51.208;4.238;2023-02-12T03:05:09;18.00;99.90
14527;DHT22;7350;51.208;4.238;2023-02-12T03:07:43;18.00;99.90
14527;DHT22;7350;51.208;4.238;2023-02-12T03:10:16;18.00;99.90
14527;DHT22;7350;51.208;4.238;2023-02-12T03:12:47;18.00;99.90
14527;DHT22;7350;51.208;4.238;2023-02-12T03:15:20;18.00;99.90
14527;DHT22;7350;51.208;4.238;2023-02-12T03:17:51;18.00;99.90
14527;DHT22;7350;51.208;4.238;2023-02-12T03:20:20;18.00;99.90
14527;DHT22;7350;51.208;4.238;2023-02-12T03:22:51;18.00;99.90
14527;DHT22;7350;51.208;4.238;2023-02-12T03:25:21;17.90;99.90
14527;DHT22;7350;51.208;4.238;2023-02-12T03:28:03;18.00;99.90
14527;DHT22;7350;51.208;4.238;2023-02-12T03:30:34;18.00;99.90
14527;DHT22;7350;51.208;4.238;2023-02-12T03:33:12;18.00;99.90
14527;DHT22;7350;51.208;4.238;2023-02-12T03:35:45;17.90;99.90
14527;DHT22;7350;51.208;4.238;2023-02-12T03:38:21;17.90;99.90
14527;DHT22;7350;51.208;4.238;2023-02-12T03:40:55;17.90;99.90
14527;DHT22;7350;51.208;4.238;2023-02-12T03:43:28;17.90;99.90
14527;DHT22;7350;51.208;4.238;2023-02-12T03:45:59;17.90;99.90
14527;DHT22;7350;51.208;4.238;2023-02-12T03:48:33;17.90;99.90
14527;DHT22;7350;51.208;4.238;2023-02-12T03:51:04;17.80;99.90
14527;DHT22;7350;51.208;4.238;2023-02-12T03:53:34;17.90;99.90
14527;DHT22;7350;51.208;4.238;2023-02-12T03:56:04;17.90;99.90
14527;DHT22;7350;51.208;4.238;2023-02-12T03:58:33;17.90;99.90
14527;DHT22;7350;51.208;4.238;2023-02-12T04:01:01;17.90;99.90
14527;DHT22;7350;51.208;4.238;2023-02-12T04:03:30;17.90;99.90
14527;DHT22;7350;51.208;4.238;2023-02-12T04:05:57;17.80;99.90
14527;DHT22;7350;51.208;4.238;2023-02-12T04:08:25;17.90;99.90
14527;DHT22;7350;51.208;4.238;2023-02-12T04:11:00;17.80;99.90
14527;DHT22;7350;51.208;4.238;2023-02-12T04:13:36;17.80;99.90
14527;DHT22;7350;51.208;4.238;2023-02-12T04:16:16;17.80;99.90
14527;DHT22;7350;51.208;4.238;2023-02-12T04:18:47;17.80;99.90
14527;DHT22;7350;51.208;4.238;2023-02-12T04:21:22;17.80;99.90
14527;DHT22;7350;51.208;4.238;2023-02-12T04:24:02;17.80;99.90
14527;DHT22;7350;51.208;4.238;2023-02-12T04:26:36;17.80;99.90
14527;DHT22;7350;51.208;4.238;2023-02-12T04:29:13;17.80;99.90
14527;DHT22;7350;51.208;4.238;2023-02-12T04:31:46;17.80;99.90
14527;DHT22;7350;51.208;4.238;2023-02-12T04:34:22;17.80;99.90
14527;DHT22;7350;51.208;4.238;2023-02-12T04:36:55;17.70;99.90
14527;DHT22;7350;51.208;4.238;2023-02-12T04:39:26;17.70;99.90
14527;DHT22;7350;51.208;4.238;2023-02-12T04:41:57;17.70;99.90
14527;DHT22;7350;51.208;4.238;2023-02-12T04:44:26;17.70;99.90
14527;DHT22;7350;51.208;4.238;2023-02-12T04:46:53;17.70;99.90
14527;DHT22;7350;51.208;4.238;2023-02-12T04:49:23;17.70;99.90
14527;DHT22;7350;51.208;4.238;2023-02-12T04:51:50;17.70;99.90
14527;DHT22;7350;51.208;4.238;2023-02-12T04:54:18;17.70;99.90
14527;DHT22;7350;51.208;4.238;2023-02-12T04:56:46;17.70;99.90
14527;DHT22;7350;51.208;4.238;2023-02-12T04:59:14;17.70;99.90
14527;DHT22;7350;51.208;4.238;2023-02-12T05:01:41;17.60;99.90
14527;DHT22;7350;51.208;4.238;2023-02-12T05:04:11;17.60;99.90
14527;DHT22;7350;51.208;4.238;2023-02-12T05:06:40;17.60;99.90
14527;DHT22;7350;51.208;4.238;2023-02-12T05:09:09;17.60;99.90
14527;DHT22;7350;51.208;4.238;2023-02-12T05:11:37;17.60;99.90
14527;DHT22;7350;51.208;4.238;2023-02-12T05:14:04;17.60;99.90
14527;DHT22;7350;51.208;4.238;2023-02-12T05:16:31;17.60;99.90
14527;DHT22;7350;51.208;4.238;2023-02-12T05:18:58;17.60;99.90
14527;DHT22;7350;51.208;4.238;2023-02-12T05:21:25;17.70;99.90
14527;DHT22;7350;51.208;4.238;2023-02-12T05:23:53;17.70;99.90
14527;DHT22;7350;51.208;4.238;2023-02-12T05:26:21;17.60;99.90
14527;DHT22;7350;51.208;4.238;2023-02-12T05:28:48;17.60;99.90
14527;DHT22;7350;51.208;4.238;2023-02-12T05:31:16;17.60;99.90
14527;DHT22;7350;51.208;4.238;2023-02-12T05:33:46;17.60;99.90
14527;DHT22;7350;51.208;4.238;2023-02-12T05:36:16;17.60;99.90
14527;DHT22;7350;51.208;4.238;2023-02-12T05:38:43;17.60;99.90
14527;DHT22;7350;51.208;4.238;2023-02-12T05:41:14;17.60;99.90
14527;DHT22;7350;51.208;4.238;2023-02-12T05:43:41;17.60;99.90
14527;DHT22;7350;51.208;4.238;2023-02-12T05:46:09;17.60;99.90
14527;DHT22;7350;51.208;4.238;2023-02-12T05:48:36;17.60;99.90
14527;DHT22;7350;51.208;4.238;2023-02-12T05:51:04;17.60;99.90
14527;DHT22;7350;51.208;4.238;2023-02-12T05:53:31;17.80;99.90
14527;DHT22;7350;51.208;4.238;2023-02-12T05:56:09;17.90;99.90
14527;DHT22;7350;51.208;4.238;2023-02-12T05:58:38;18.00;99.90
14527;DHT22;7350;51.208;4.238;2023-02-12T06:01:11;18.10;99.90
14527;DHT22;7350;51.208;4.238;2023-02-12T06:03:38;18.30;99.90
14527;DHT22;7350;51.208;4.238;2023-02-12T06:06:05;18.40;99.90
14527;DHT22;7350;51.208;4.238;2023-02-12T06:08:32;18.50;99.90
14527;DHT22;7350;51.208;4.238;2023-02-12T06:11:01;18.60;99.90
14527;DHT22;7350;51.208;4.238;2023-02-12T06:13:28;18.70;99.90
14527;DHT22;7350;51.208;4.238;2023-02-12T06:15:57;18.70;99.90
14527;DHT22;7350;51.208;4.238;2023-02-12T06:18:26;18.70;99.90
14527;DHT22;7350;51.208;4.238;2023-02-12T06:20:53;18.80;99.90
14527;DHT22;7350;51.208;4.238;2023-02-12T06:23:20;18.90;99.90
14527;DHT22;7350;51.208;4.238;2023-02-12T06:25:47;19.00;99.90
14527;DHT22;7350;51.208;4.238;2023-02-12T06:28:14;19.00;99.90
14527;DHT22;7350;51.208;4.238;2023-02-12T06:30:42;19.00;99.90
14527;DHT22;7350;51.208;4.238;2023-02-12T06:33:11;19.00;99.90
14527;DHT22;7350;51.208;4.238;2023-02-12T06:35:38;19.10;99.90
14527;DHT22;7350;51.208;4.238;2023-02-12T06:38:05;19.20;99.90
14527;DHT22;7350;51.208;4.238;2023-02-12T06:40:32;19.20;99.90
14527;DHT22;7350;51.208;4.238;2023-02-12T06:42:59;19.30;99.90
14527;DHT22;7350;51.208;4.238;2023-02-12T06:45:26;19.30;99.90
14527;DHT22;7350;51.208;4.238;2023-02-12T06:47:53;19.40;99.90
14527;DHT22;7350;51.208;4.238;2023-02-12T06:50:21;19.50;99.90
14527;DHT22;7350;51.208;4.238;2023-02-12T06:52:48;19.50;99.90
14527;DHT22;7350;51.208;4.238;2023-02-12T06:55:16;19.50;99.90
14527;DHT22;7350;51.208;4.238;2023-02-12T06:57:43;19.60;99.90
14527;DHT22;7350;51.208;4.238;2023-02-12T07:00:10;19.70;99.90
14527;DHT22;7350;51.208;4.238;2023-02-12T07:02:38;19.70;99.90
14527;DHT22;7350;51.208;4.238;2023-02-12T07:05:05;19.70;99.90
14527;DHT22;7350;51.208;4.238;2023-02-12T07:07:33;19.70;99.90
14527;DHT22;7350;51.208;4.238;2023-02-12T07:10:00;19.80;99.90
14527;DHT22;7350;51.208;4.238;2023-02-12T07:12:27;19.80;99.90
14527;DHT22;7350;51.208;4.238;2023-02-12T07:14:54;19.80;99.90
14527;DHT22;7350;51.208;4.238;2023-02-12T07:17:21;19.80;99.90
14527;DHT22;7350;51.208;4.238;2023-02-12T07:19:48;19.80;99.90
14527;DHT22;7350;51.208;4.238;2023-02-12T07:22:15;19.80;99.90
14527;DHT22;7350;51.208;4.238;2023-02-12T07:24:43;19.80;99.90
14527;DHT22;7350;51.208;4.238;2023-02-12T07:27:10;19.80;99.90
14527;DHT22;7350;51.208;4.238;2023-02-12T07:29:37;19.80;99.90
14527;DHT22;7350;51.208;4.238;2023-02-12T07:32:04;19.80;99.90
14527;DHT22;7350;51.208;4.238;2023-02-12T07:34:31;19.70;99.90
14527;DHT22;7350;51.208;4.238;2023-02-12T07:36:58;19.60;99.90
14527;DHT22;7350;51.208;4.238;2023-02-12T07:39:25;19.70;99.90
14527;DHT22;7350;51.208;4.238;2023-02-12T07:41:55;19.70;99.90
14527;DHT22;7350;51.208;4.238;2023-02-12T07:44:23;19.70;99.90
14527;DHT22;7350;51.208;4.238;2023-02-12T07:46:50;19.70;99.90
14527;DHT22;7350;51.208;4.238;2023-02-12T07:49:18;19.60;99.90
14527;DHT22;7350;51.208;4.238;2023-02-12T07:51:46;19.70;99.90
14527;DHT22;7350;51.208;4.238;2023-02-12T07:54:14;19.70;99.90
14527;DHT22;7350;51.208;4.238;2023-02-12T07:56:42;19.70;99.90
14527;DHT22;7350;51.208;4.238;2023-02-12T07:59:14;19.70;99.90
14527;DHT22;7350;51.208;4.238;2023-02-12T08:01:44;19.70;99.90
14527;DHT22;7350;51.208;4.238;2023-02-12T08:04:13;19.70;99.90
14527;DHT22;7350;51.208;4.238;2023-02-12T08:06:42;19.70;99.90
14527;DHT22;7350;51.208;4.238;2023-02-12T08:09:11;19.70;99.90
14527;DHT22;7350;51.208;4.238;2023-02-12T08:11:39;19.70;99.90
14527;DHT22;7350;51.208;4.238;2023-02-12T08:14:06;19.70;99.90
14527;DHT22;7350;51.208;4.238;2023-02-12T08:16:37;19.70;99.90
14527;DHT22;7350;51.208;4.238;2023-02-12T08:19:05;19.70;99.90
14527;DHT22;7350;51.208;4.238;2023-02-12T08:21:32;19.70;99.90
14527;DHT22;7350;51.208;4.238;2023-02-12T08:23:59;19.70;99.90
14527;DHT22;7350;51.208;4.238;2023-02-12T08:26:29;19.70;99.90
14527;DHT22;7350;51.208;4.238;2023-02-12T08:28:58;19.70;99.90
14527;DHT22;7350;51.208;4.238;2023-02-12T08:31:27;19.80;99.90
14527;DHT22;7350;51.208;4.238;2023-02-12T08:33:57;19.80;99.90
14527;DHT22;7350;51.208;4.238;2023-02-12T08:36:26;19.80;99.90
14527;DHT22;7350;51.208;4.238;2023-02-12T08:38:53;19.80;99.90
14527;DHT22;7350;51.208;4.238;2023-02-12T08:41:21;19.80;99.90
14527;DHT22;7350;51.208;4.238;2023-02-12T08:43:51;19.80;99.90
14527;DHT22;7350;51.208;4.238;2023-02-12T08:46:19;19.80;99.90
14527;DHT22;7350;51.208;4.238;2023-02-12T08:48:47;19.90;99.90
14527;DHT22;7350;51.208;4.238;2023-02-12T08:51:18;19.90;99.90
14527;DHT22;7350;51.208;4.238;2023-02-12T08:53:47;19.80;99.90
14527;DHT22;7350;51.208;4.238;2023-02-12T08:56:16;19.80;99.90
14527;DHT22;7350;51.208;4.238;2023-02-12T08:58:44;19.80;99.90
14527;DHT22;7350;51.208;4.238;2023-02-12T09:01:13;19.80;99.90
14527;DHT22;7350;51.208;4.238;2023-02-12T09:03:41;19.80;99.90
14527;DHT22;7350;51.208;4.238;2023-02-12T09:06:08;19.80;99.90
14527;DHT22;7350;51.208;4.238;2023-02-12T09:08:37;19.90;99.90
14527;DHT22;7350;51.208;4.238;2023-02-12T09:11:05;19.90;99.90
14527;DHT22;7350;51.208;4.238;2023-02-12T09:13:33;19.90;99.90
14527;DHT22;7350;51.208;4.238;2023-02-12T09:16:01;19.90;99.90
14527;DHT22;7350;51.208;4.238;2023-02-12T09:18:29;19.90;99.90
14527;DHT22;7350;51.208;4.238;2023-02-12T09:21:00;19.90;99.90
14527;DHT22;7350;51.208;4.238;2023-02-12T09:23:27;19.90;99.90
14527;DHT22;7350;51.208;4.238;2023-02-12T09:25:56;19.90;99.90
14527;DHT22;7350;51.208;4.238;2023-02-12T09:28:23;19.90;99.90
14527;DHT22;7350;51.208;4.238;2023-02-12T09:30:50;19.90;99.90
14527;DHT22;7350;51.208;4.238;2023-02-12T09:33:17;19.90;99.90
14527;DHT22;7350;51.208;4.238;2023-02-12T09:35:44;19.90;99.90
14527;DHT22;7350;51.208;4.238;2023-02-12T09:38:11;19.90;99.90
14527;DHT22;7350;51.208;4.238;2023-02-12T09:40:43;19.90;99.90
14527;DHT22;7350;51.208;4.238;2023-02-12T09:43:22;19.90;99.90
14527;DHT22;7350;51.208;4.238;2023-02-12T09:45:59;19.90;99.90
14527;DHT22;7350;51.208;4.238;2023-02-12T09:48:38;19.90;99.90
14527;DHT22;7350;51.208;4.238;2023-02-12T09:51:09;19.90;99.90
14527;DHT22;7350;51.208;4.238;2023-02-12T09:53:45;19.90;99.90
14527;DHT22;7350;51.208;4.238;2023-02-12T09:56:15;19.90;99.90
14527;DHT22;7350;51.208;4.238;2023-02-12T09:58:46;19.90;99.90
14527;DHT22;7350;51.208;4.238;2023-02-12T10:01:16;19.90;99.90
14527;DHT22;7350;51.208;4.238;2023-02-12T10:03:43;19.90;99.90
14527;DHT22;7350;51.208;4.238;2023-02-12T10:06:14;20.00;99.90
14527;DHT22;7350;51.208;4.238;2023-02-12T10:08:54;20.00;99.90
14527;DHT22;7350;51.208;4.238;2023-02-12T10:17:13;20.00;99.90
14527;DHT22;7350;51.208;4.238;2023-02-12T10:19:58;20.00;99.90
14527;DHT22;7350;51.208;4.238;2023-02-12T10:22:34;20.00;99.90
14527;DHT22;7350;51.208;4.238;2023-02-12T10:25:13;20.10;99.90
14527;DHT22;7350;51.208;4.238;2023-02-12T10:27:49;20.10;99.90
14527;DHT22;7350;51.208;4.238;2023-02-12T10:30:21;20.10;99.90
14527;DHT22;7350;51.208;4.238;2023-02-12T10:32:54;20.10;99.90
14527;DHT22;7350;51.208;4.238;2023-02-12T10:35:25;20.10;99.90
14527;DHT22;7350;51.208;4.238;2023-02-12T10:37:55;20.10;99.90
14527;DHT22;7350;51.208;4.238;2023-02-12T10:40:25;20.20;99.90
14527;DHT22;7350;51.208;4.238;2023-02-12T10:42:55;20.20;99.90
14527;DHT22;7350;51.208;4.238;2023-02-12T10:45:29;20.20;99.90
14527;DHT22;7350;51.208;4.238;2023-02-12T10:48:04;20.30;99.90
14527;DHT22;7350;51.208;4.238;2023-02-12T10:50:49;20.30;99.90
14527;DHT22;7350;51.208;4.238;2023-02-12T10:53:21;20.30;99.90
14527;DHT22;7350;51.208;4.238;2023-02-12T10:55:49;20.20;99.90
14527;DHT22;7350;51.208;4.238;2023-02-12T10:58:19;20.20;99.90
14527;DHT22;7350;51.208;4.238;2023-02-12T11:00:55;20.20;99.90
14527;DHT22;7350;51.208;4.238;2023-02-12T11:03:27;20.20;99.90
14527;DHT22;7350;51.208;4.238;2023-02-12T11:05:55;20.10;99.90
14527;DHT22;7350;51.208;4.238;2023-02-12T11:08:32;20.10;99.90
14527;DHT22;7350;51.208;4.238;2023-02-12T11:11:05;20.10;99.90
14527;DHT22;7350;51.208;4.238;2023-02-12T11:13:33;20.10;99.90
14527;DHT22;7350;51.208;4.238;2023-02-12T11:16:03;20.10;99.90
14527;DHT22;7350;51.208;4.238;2023-02-12T11:18:31;20.00;99.90
14527;DHT22;7350;51.208;4.238;2023-02-12T11:21:00;20.00;99.90
14527;DHT22;7350;51.208;4.238;2023-02-12T11:23:29;20.00;99.90
14527;DHT22;7350;51.208;4.238;2023-02-12T11:25:59;20.00;99.90
14527;DHT22;7350;51.208;4.238;2023-02-12T11:28:27;20.00;99.90
14527;DHT22;7350;51.208;4.238;2023-02-12T11:30:56;19.90;99.90
14527;DHT22;7350;51.208;4.238;2023-02-12T11:33:29;19.90;99.90
14527;DHT22;7350;51.208;4.238;2023-02-12T11:35:59;19.90;99.90
14527;DHT22;7350;51.208;4.238;2023-02-12T11:38:32;19.90;99.90
14527;DHT22;7350;51.208;4.238;2023-02-12T11:41:04;19.90;99.90
14527;DHT22;7350;51.208;4.238;2023-02-12T11:43:34;19.80;99.90
14527;DHT22;7350;51.208;4.238;2023-02-12T11:46:04;19.80;99.90
14527;DHT22;7350;51.208;4.238;2023-02-12T11:48:36;19.80;99.90
14527;DHT22;7350;51.208;4.238;2023-02-12T11:51:06;19.80;99.90
14527;DHT22;7350;51.208;4.238;2023-02-12T11:53:36;19.70;99.90
14527;DHT22;7350;51.208;4.238;2023-02-12T11:56:07;19.70;99.90
14527;DHT22;7350;51.208;4.238;2023-02-12T11:58:34;19.70;99.90
14527;DHT22;7350;51.208;4.238;2023-02-12T12:01:10;19.60;99.90
14527;DHT22;7350;51.208;4.238;2023-02-12T12:03:44;19.60;99.90
14527;DHT22;7350;51.208;4.238;2023-02-12T12:06:31;19.60;99.90
14527;DHT22;7350;51.208;4.238;2023-02-12T12:09:04;19.60;99.90
14527;DHT22;7350;51.208;4.238;2023-02-12T12:11:37;19.60;99.90
14527;DHT22;7350;51.208;4.238;2023-02-12T12:14:11;19.50;99.90
14527;DHT22;7350;51.208;4.238;2023-02-12T12:16:43;19.50;99.90
14527;DHT22;7350;51.208;4.238;2023-02-12T12:19:37;19.40;99.90
14527;DHT22;7350;51.208;4.238;2023-02-12T12:22:39;19.40;99.90
14527;DHT22;7350;51.208;4.238;2023-02-12T12:25:15;19.40;99.90
14527;DHT22;7350;51.208;4.238;2023-02-12T12:27:52;19.30;99.90
14527;DHT22;7350;51.208;4.238;2023-02-12T12:33:29;19.30;99.90
14527;DHT22;7350;51.208;4.238;2023-02-12T12:38:55;19.20;99.90
14527;DHT22;7350;51.208;4.238;2023-02-12T12:41:32;19.20;99.90
14527;DHT22;7350;51.208;4.238;2023-02-12T12:44:14;19.20;99.90
14527;DHT22;7350;51.208;4.238;2023-02-12T12:47:02;19.20;99.90
14527;DHT22;7350;51.208;4.238;2023-02-12T12:49:51;19.20;99.90
14527;DHT22;7350;51.208;4.238;2023-02-12T12:55:50;19.10;99.90
14527;DHT22;7350;51.208;4.238;2023-02-12T12:58:29;19.10;99.90
14527;DHT22;7350;51.208;4.238;2023-02-12T13:01:09;19.10;99.90
14527;DHT22;7350;51.208;4.238;2023-02-12T13:03:58;19.00;99.90
14527;DHT22;7350;51.208;4.238;2023-02-12T13:06:44;19.10;99.90
14527;DHT22;7350;51.208;4.238;2023-02-12T13:09:22;19.00;99.90
14527;DHT22;7350;51.208;4.238;2023-02-12T13:12:08;19.00;99.90
14527;DHT22;7350;51.208;4.238;2023-02-12T13:14:44;19.00;99.90
14527;DHT22;7350;51.208;4.238;2023-02-12T13:17:17;19.00;99.90
14527;DHT22;7350;51.208;4.238;2023-02-12T13:19:54;18.90;99.90
14527;DHT22;7350;51.208;4.238;2023-02-12T13:22:29;18.90;99.90
14527;DHT22;7350;51.208;4.238;2023-02-12T13:25:05;18.90;99.90
14527;DHT22;7350;51.208;4.238;2023-02-12T13:27:41;18.90;99.90
14527;DHT22;7350;51.208;4.238;2023-02-12T13:30:18;18.90;99.90
14527;DHT22;7350;51.208;4.238;2023-02-12T13:32:49;18.90;99.90
14527;DHT22;7350;51.208;4.238;2023-02-12T13:35:19;18.90;99.90
14527;DHT22;7350;51.208;4.238;2023-02-12T13:37:49;18.80;99.90
14527;DHT22;7350;51.208;4.238;2023-02-12T13:40:21;18.80;99.90
14527;DHT22;7350;51.208;4.238;2023-02-12T13:42:54;18.80;99.90
14527;DHT22;7350;51.208;4.238;2023-02-12T13:45:33;18.80;99.90
14527;DHT22;7350;51.208;4.238;2023-02-12T13:48:23;18.80;99.90
14527;DHT22;7350;51.208;4.238;2023-02-12T13:51:00;18.80;99.90
14527;DHT22;7350;51.208;4.238;2023-02-12T13:53:36;18.80;99.90
14527;DHT22;7350;51.208;4.238;2023-02-12T13:56:22;18.70;99.90
14527;DHT22;7350;51.208;4.238;2023-02-12T13:58:53;18.70;99.90
14527;DHT22;7350;51.208;4.238;2023-02-12T14:01:38;18.70;99.90
14527;DHT22;7350;51.208;4.238;2023-02-12T14:04:28;18.70;99.90
14527;DHT22;7350;51.208;4.238;2023-02-12T14:06:59;18.70;99.90
14527;DHT22;7350;51.208;4.238;2023-02-12T14:09:35;18.70;99.90
14527;DHT22;7350;51.208;4.238;2023-02-12T14:12:06;18.70;99.90
14527;DHT22;7350;51.208;4.238;2023-02-12T14:14:37;18.70;99.90
14527;DHT22;7350;51.208;4.238;2023-02-12T14:17:41;18.70;99.90
14527;DHT22;7350;51.208;4.238;2023-02-12T14:20:23;18.60;99.90
14527;DHT22;7350;51.208;4.238;2023-02-12T14:23:20;18.60;99.90
14527;DHT22;7350;51.208;4.238;2023-02-12T14:25:56;18.60;99.90
14527;DHT22;7350;51.208;4.238;2023-02-12T14:31:33;18.60;99.90
14527;DHT22;7350;51.208;4.238;2023-02-12T14:37:11;18.50;99.90
14527;DHT22;7350;51.208;4.238;2023-02-12T14:39:40;18.50;99.90
14527;DHT22;7350;51.208;4.238;2023-02-12T14:45:32;18.50;99.90
14527;DHT22;7350;51.208;4.238;2023-02-12T14:47:59;18.50;99.90
14527;DHT22;7350;51.208;4.238;2023-02-12T14:50:36;18.50;99.90
14527;DHT22;7350;51.208;4.238;2023-02-12T14:53:18;18.50;99.90
14527;DHT22;7350;51.208;4.238;2023-02-12T14:55:48;18.40;99.90
14527;DHT22;7350;51.208;4.238;2023-02-12T14:58:19;18.40;99.90
14527;DHT22;7350;51.208;4.238;2023-02-12T15:00:50;18.40;99.90
14527;DHT22;7350;51.208;4.238;2023-02-12T15:03:29;18.40;99.90
14527;DHT22;7350;51.208;4.238;2023-02-12T15:06:03;18.40;99.90
14527;DHT22;7350;51.208;4.238;2023-02-12T15:08:38;18.40;99.90
14527;DHT22;7350;51.208;4.238;2023-02-12T15:11:13;18.40;99.90
14527;DHT22;7350;51.208;4.238;2023-02-12T15:13:48;18.40;99.90
14527;DHT22;7350;51.208;4.238;2023-02-12T15:16:26;18.40;99.90
14527;DHT22;7350;51.208;4.238;2023-02-12T15:18:58;18.40;99.90
14527;DHT22;7350;51.208;4.238;2023-02-12T15:21:29;18.40;99.90
14527;DHT22;7350;51.208;4.238;2023-02-12T15:24:02;18.40;99.90
14527;DHT22;7350;51.208;4.238;2023-02-12T15:26:33;18.50;99.90
14527;DHT22;7350;51.208;4.238;2023-02-12T15:29:01;18.50;99.90
14527;DHT22;7350;51.208;4.238;2023-02-12T15:31:31;18.60;99.90
14527;DHT22;7350;51.208;4.238;2023-02-12T15:34:01;18.50;99.90
14527;DHT22;7350;51.208;4.238;2023-02-12T15:36:31;18.50;99.90
14527;DHT22;7350;51.208;4.238;2023-02-12T15:39:00;18.50;99.90
14527;DHT22;7350;51.208;4.238;2023-02-12T15:41:37;18.50;99.90
14527;DHT22;7350;51.208;4.238;2023-02-12T15:44:19;18.50;99.90
14527;DHT22;7350;51.208;4.238;2023-02-12T15:46:58;18.60;99.90
14527;DHT22;7350;51.208;4.238;2023-02-12T15:49:29;18.60;99.90
14527;DHT22;7350;51.208;4.238;2023-02-12T15:51:58;18.70;99.90
14527;DHT22;7350;51.208;4.238;2023-02-12T15:54:26;18.70;99.90
14527;DHT22;7350;51.208;4.238;2023-02-12T15:56:54;18.80;99.90
14527;DHT22;7350;51.208;4.238;2023-02-12T15:59:23;18.80;99.90
14527;DHT22;7350;51.208;4.238;2023-02-12T16:01:57;18.80;99.90
14527;DHT22;7350;51.208;4.238;2023-02-12T16:04:29;18.80;99.90
14527;DHT22;7350;51.208;4.238;2023-02-12T16:06:57;18.90;99.90
14527;DHT22;7350;51.208;4.238;2023-02-12T16:09:28;18.80;99.90
14527;DHT22;7350;51.208;4.238;2023-02-12T16:11:57;18.90;99.90
14527;DHT22;7350;51.208;4.238;2023-02-12T16:14:28;18.90;99.90
14527;DHT22;7350;51.208;4.238;2023-02-12T16:17:00;19.00;99.90
14527;DHT22;7350;51.208;4.238;2023-02-12T16:19:29;19.00;99.90
14527;DHT22;7350;51.208;4.238;2023-02-12T16:22:01;19.00;99.90
14527;DHT22;7350;51.208;4.238;2023-02-12T16:24:35;19.00;99.90
14527;DHT22;7350;51.208;4.238;2023-02-12T16:27:06;19.00;99.90
14527;DHT22;7350;51.208;4.238;2023-02-12T16:29:37;19.00;99.90
14527;DHT22;7350;51.208;4.238;2023-02-12T16:32:26;19.10;99.90
14527;DHT22;7350;51.208;4.238;2023-02-12T16:34:59;19.10;99.90
14527;DHT22;7350;51.208;4.238;2023-02-12T16:37:45;19.20;99.90
14527;DHT22;7350;51.208;4.238;2023-02-12T16:40:32;19.10;99.90
14527;DHT22;7350;51.208;4.238;2023-02-12T16:43:24;19.00;99.90